Time;durP1;ratioP1;P1;durP2;ratioP2;P2;SDS_P1;SDS_P2;PMS_P1;PMS_P2;Temp;Humidity;BMP_temperature;BMP_pressure;BME280_temperature;BME280_humidity;BME280_pressure;Samples;Min_cycle;Max_cycle;Signal;HPM_P1;HPM_P2
2024/03/16 00:00:49;;;;;;;3.77;2.53;;;11.70;79.70;;;11.05;76.04;97688.09;5045639;28;20452;-78
2024/03/16 00:03:18;;;;;;;4.13;2.80;;;11.80;79.70;;;11.00;76.26;97696.06;5049079;28;20459;-78
2024/03/16 00:05:46;;;;;;;3.20;2.37;;;11.70;79.70;;;11.20;76.22;97698.50;5030194;28;21034;-79
2024/03/16 00:08:14;;;;;;;3.70;2.93;;;11.80;80.00;;;11.13;76.97;97705.06;5050277;28;20534;-77
2024/03/16 00:10:41;;;;;;;2.53;2.33;;;11.90;80.20;;;11.02;78.29;97702.06;5056393;28;20458;-77
2024/03/16 00:13:08;;;;;;;4.20;2.53;;;11.80;80.60;;;10.85;80.21;97706.44;5054263;28;20485;-75
2024/03/16 00:15:36;;;;;;;2.50;2.30;;;11.70;81.40;;;10.79;81.37;97707.31;5021534;28;20467;-76
2024/03/16 00:18:04;;;;;;;5.83;3.07;;;11.60;81.60;;;10.76;81.15;97713.97;5046392;28;20604;-75
2024/03/16 00:20:31;;;;;;;3.90;3.50;;;11.60;81.80;;;10.50;84.87;97702.41;5043116;28;20975;-74
2024/03/16 00:22:59;;;;;;;4.63;4.10;;;11.40;83.30;;;10.44;87.04;97701.44;5033353;28;20461;-76
2024/03/16 00:25:26;;;;;;;5.20;3.63;;;11.30;84.20;;;10.32;89.40;97706.72;5053028;28;20814;-75
2024/03/16 00:27:54;;;;;;;4.77;4.00;;;11.20;85.10;;;10.19;90.73;97704.94;5050791;28;20473;-75
2024/03/16 00:30:23;;;;;;;5.03;3.90;;;11.10;85.90;;;10.18;91.64;97705.97;5053214;28;20469;-76
2024/03/16 00:32:51;;;;;;;4.50;3.83;;;11.00;86.50;;;10.11;92.55;97702.53;5036584;28;20919;-75
2024/03/16 00:35:19;;;;;;;4.60;4.13;;;11.00;87.30;;;9.96;95.21;97699.31;5037339;28;21137;-74
2024/03/16 00:37:46;;;;;;;4.23;3.67;;;10.90;88.30;;;10.04;93.95;97699.03;5037354;28;20465;-75
2024/03/16 00:40:15;;;;;;;5.10;4.10;;;10.90;88.70;;;9.84;95.74;97694.63;5049872;28;20462;-74
2024/03/16 00:42:43;;;;;;;5.93;4.90;;;10.80;89.70;;;9.78;96.86;97684.69;5047125;28;20488;-75
2024/03/16 00:45:10;;;;;;;4.83;4.17;;;10.70;90.30;;;9.95;97.05;97681.47;5056264;28;20447;-74
2024/03/16 00:47:38;;;;;;;7.70;4.20;;;10.70;90.60;;;9.92;97.24;97680.03;5046525;28;20460;-75
2024/03/16 00:50:06;;;;;;;4.83;3.77;;;10.70;90.90;;;9.87;97.51;97678.00;5042379;28;20444;-76
2024/03/16 00:52:34;;;;;;;4.30;3.87;;;10.70;91.00;;;9.74;96.75;97664.59;5053782;28;20501;-77
2024/03/16 00:55:02;;;;;;;5.40;3.90;;;10.70;90.80;;;9.79;96.53;97678.28;5053220;28;20458;-76
2024/03/16 00:57:30;;;;;;;4.60;3.77;;;10.60;90.90;;;9.80;95.59;97698.81;5045574;28;20559;-76
2024/03/16 00:59:57;;;;;;;5.33;4.13;;;10.70;90.60;;;9.83;95.67;97694.81;5054034;28;20447;-76
2024/03/16 01:02:24;;;;;;;5.43;4.10;;;10.60;90.70;;;9.89;96.13;97700.19;5035439;28;20440;-77
2024/03/16 01:04:52;;;;;;;4.70;3.77;;;10.60;91.00;;;9.84;96.92;97699.19;5015588;28;20552;-77
2024/03/16 01:07:19;;;;;;;4.10;3.53;;;10.60;91.00;;;9.86;96.28;97703.31;5050711;28;21606;-77
2024/03/16 01:09:46;;;;;;;5.27;3.67;;;10.60;91.20;;;9.74;97.11;97707.75;5033248;28;20454;-77
2024/03/16 01:12:14;;;;;;;8.37;3.63;;;10.60;91.20;;;9.75;96.01;97704.84;5037226;28;20439;-76
2024/03/16 01:14:41;;;;;;;3.63;3.30;;;10.60;91.00;;;9.77;95.26;97707.31;5039699;28;20451;-76
2024/03/16 01:17:09;;;;;;;4.27;3.37;;;10.60;90.80;;;9.69;96.14;97704.91;5052912;28;20455;-76
2024/03/16 01:19:38;;;;;;;4.77;3.23;;;10.50;90.80;;;9.70;95.73;97709.25;5017345;28;20467;-76
2024/03/16 01:22:05;;;;;;;5.33;3.20;;;10.50;90.80;;;9.72;95.56;97712.53;5056824;28;21425;-75
2024/03/16 01:24:33;;;;;;;2.77;2.50;;;10.50;90.70;;;9.67;94.21;97699.72;5034319;28;20457;-76
2024/03/16 01:26:59;;;;;;;3.07;2.63;;;10.50;90.50;;;9.62;93.00;97700.34;5035353;28;20943;-76
2024/03/16 01:29:27;;;;;;;3.20;2.20;;;10.50;90.10;;;9.71;92.54;97713.59;5041084;28;20543;-75
2024/03/16 01:31:54;;;;;;;3.23;2.50;;;10.50;90.10;;;9.64;93.16;97719.03;5062793;28;20458;-76
2024/03/16 01:34:22;;;;;;;2.30;2.10;;;10.50;89.60;;;9.73;92.37;97712.34;5041758;28;20443;-77
2024/03/16 01:36:49;;;;;;;2.50;2.03;;;10.50;89.70;;;9.70;91.15;97706.56;5048678;28;20451;-77
2024/03/16 01:39:17;;;;;;;2.20;1.53;;;10.50;89.40;;;9.74;91.14;97716.69;5044886;28;20468;-76
2024/03/16 01:41:44;;;;;;;2.43;1.40;;;10.50;88.80;;;9.66;90.98;97716.13;5037224;28;20456;-76
2024/03/16 01:44:12;;;;;;;1.70;1.50;;;10.50;88.40;;;9.73;90.64;97728.53;5046831;28;20455;-75
2024/03/16 01:46:41;;;;;;;3.00;1.60;;;10.50;88.40;;;9.64;90.92;97717.16;5059662;28;20462;-75
2024/03/16 01:49:08;;;;;;;3.17;0.93;;;10.50;88.30;;;9.72;91.45;97712.53;5047014;28;20637;-76
2024/03/16 01:51:37;;;;;;;1.63;0.80;;;10.50;88.50;;;9.57;93.56;97707.47;5073477;28;20471;-77
2024/03/16 01:54:04;;;;;;;1.47;0.80;;;10.50;89.30;;;9.40;97.35;97715.22;5056070;28;20463;-77
2024/03/16 01:56:32;;;;;;;1.73;0.70;;;10.40;90.80;;;9.25;98.58;97702.84;5039760;28;21169;-77
2024/03/16 01:58:59;;;;;;;1.90;0.97;;;10.20;91.80;;;9.30;99.38;97719.19;5039766;28;20476;-77
2024/03/16 02:01:28;;;;;;;1.50;0.90;;;10.20;92.30;;;9.14;100.00;97708.91;5034407;28;20791;-78
2024/03/16 02:03:57;;;;;;;0.90;0.67;;;10.10;92.30;;;9.29;99.87;97714.84;5034903;28;20450;-78
2024/03/16 02:06:26;;;;;;;1.13;0.80;;;10.10;92.80;;;9.26;99.52;97714.47;5042147;28;21133;-76
2024/03/16 02:08:54;;;;;;;1.17;0.60;;;10.10;92.50;;;9.23;100.00;97717.56;5043091;28;20474;-78
2024/03/16 02:11:21;;;;;;;1.53;1.17;;;10.10;92.70;;;9.18;99.04;97712.84;5031154;28;20541;-77
2024/03/16 02:13:49;;;;;;;1.13;0.50;;;10.10;92.30;;;9.06;100.00;97710.81;5045111;28;20457;-77
2024/03/16 02:16:17;;;;;;;1.80;0.60;;;10.00;92.80;;;9.07;100.00;97715.16;5041836;28;20516;-79
2024/03/16 02:18:45;;;;;;;0.53;0.40;;;9.90;93.40;;;8.90;100.00;97716.66;5036586;28;20534;-77
2024/03/16 02:21:12;;;;;;;0.63;0.63;;;9.80;93.30;;;8.79;100.00;97702.81;5033081;28;20451;-78
2024/03/16 02:23:40;;;;;;;1.43;0.50;;;9.70;93.50;;;8.74;100.00;97710.72;5051682;28;20457;-76
2024/03/16 02:26:08;;;;;;;1.87;0.50;;;9.70;94.10;;;8.70;100.00;97712.16;5037527;28;20956;-76
2024/03/16 02:28:35;;;;;;;0.50;0.50;;;9.60;94.00;;;8.66;100.00;97724.38;5056336;28;20446;-76
2024/03/16 02:31:03;;;;;;;1.63;0.43;;;9.50;94.20;;;8.65;100.00;97722.72;5018889;28;20449;-75
2024/03/16 02:33:31;;;;;;;1.60;0.77;;;9.50;94.30;;;8.68;100.00;97722.31;5046391;28;20949;-75
2024/03/16 02:35:59;;;;;;;2.20;0.90;;;9.50;94.50;;;8.79;100.00;97729.75;5069439;28;20445;-76
2024/03/16 02:38:26;;;;;;;0.63;0.60;;;9.70;94.30;;;8.87;100.00;97730.53;5043318;28;20495;-77
2024/03/16 02:40:54;;;;;;;0.50;0.50;;;9.70;94.10;;;8.85;100.00;97727.22;5056419;28;20504;-76
2024/03/16 02:43:21;;;;;;;0.73;0.60;;;9.70;93.70;;;8.98;100.00;97731.78;5018189;28;20462;-78
2024/03/16 02:45:49;;;;;;;0.53;0.53;;;9.80;93.30;;;8.88;99.90;97721.44;5049448;28;20771;-77
2024/03/16 02:48:17;;;;;;;0.60;0.50;;;9.80;93.10;;;8.92;99.82;97722.66;5034478;28;20445;-77
2024/03/16 02:50:44;;;;;;;1.27;0.50;;;9.80;92.80;;;9.05;98.05;97732.56;5049770;28;20444;-76
2024/03/16 02:53:12;;;;;;;0.73;0.70;;;9.90;92.70;;;9.04;98.51;97733.63;5049482;28;20514;-75
2024/03/16 02:55:41;;;;;;;0.50;0.43;;;9.90;92.40;;;9.20;96.91;97743.09;5041526;28;20461;-75
2024/03/16 02:58:08;;;;;;;1.20;0.60;;;9.90;92.30;;;8.94;98.24;97739.44;5036240;28;20474;-75
2024/03/16 03:00:39;;;;;;;0.67;0.67;;;9.80;92.30;;;8.85;99.34;97738.84;5032711;28;20453;-76
2024/03/16 03:03:07;;;;;;;1.23;0.73;;;9.80;92.40;;;8.82;99.93;97739.28;5069674;28;20460;-77
2024/03/16 03:05:35;;;;;;;0.80;0.47;;;9.80;92.80;;;8.93;98.75;97745.88;5034991;28;20462;-76
2024/03/16 03:08:04;;;;;;;1.17;0.80;;;9.80;92.90;;;8.88;100.00;97749.19;5049944;28;20462;-75
2024/03/16 03:10:32;;;;;;;1.03;0.70;;;9.80;93.00;;;8.98;98.57;97737.97;5041296;28;20475;-77
2024/03/16 03:13:01;;;;;;;1.30;0.70;;;9.80;92.50;;;8.86;99.29;97740.50;5050568;28;20532;-75
2024/03/16 03:15:29;;;;;;;0.90;0.60;;;9.80;92.60;;;9.00;97.98;97733.19;5053857;28;20486;-75
2024/03/16 03:17:56;;;;;;;1.33;0.70;;;9.90;92.20;;;8.88;99.56;97734.91;5047081;28;20786;-76
2024/03/16 03:20:24;;;;;;;0.60;0.60;;;9.80;92.40;;;8.97;98.46;97725.56;5037362;28;20480;-75
2024/03/16 03:22:52;;;;;;;0.53;0.53;;;9.80;92.60;;;8.98;98.42;97734.47;5048837;28;20470;-75
2024/03/16 03:25:21;;;;;;;2.97;0.90;;;9.80;92.50;;;8.84;97.87;97733.66;5057544;28;20509;-76
2024/03/16 03:27:48;;;;;;;1.27;1.00;;;9.80;92.30;;;8.61;100.00;97726.91;5033188;28;20445;-76
2024/03/16 03:30:18;;;;;;;1.40;0.83;;;9.60;92.70;;;8.68;100.00;97725.00;5033087;28;20457;-77
2024/03/16 03:32:47;;;;;;;1.97;0.90;;;9.50;93.20;;;8.54;99.28;97685.66;5047391;28;20514;-75
2024/03/16 03:35:15;;;;;;;6.40;0.87;;;9.50;93.50;;;8.85;98.22;97735.31;5047056;28;20855;-75
2024/03/16 03:37:42;;;;;;;1.10;0.80;;;9.50;93.30;;;8.82;98.75;97722.28;5031659;28;20442;-74
2024/03/16 03:40:11;;;;;;;1.00;0.90;;;9.50;93.40;;;8.71;99.89;97732.66;5037237;28;20878;-76
2024/03/16 03:42:45;;;;;;;1.10;1.00;;;9.40;93.90;;;8.77;99.75;97721.06;5040373;28;20492;-77
2024/03/16 03:45:24;;;;;;;1.23;1.10;;;9.40;93.80;;;8.81;99.47;97723.31;5052507;28;20462;-77
2024/03/16 03:48:02;;;;;;;1.50;1.10;;;9.50;93.90;;;8.81;99.47;97720.63;5054703;28;20447;-76
2024/03/16 03:50:31;;;;;;;2.17;0.70;;;9.50;93.80;;;9.07;97.31;97731.31;5040513;28;20443;-78
2024/03/16 03:53:02;;;;;;;1.63;0.83;;;9.60;93.50;;;8.90;99.08;97735.53;5014611;28;20463;-76
2024/03/16 03:55:29;;;;;;;1.93;1.10;;;9.50;93.60;;;8.99;98.34;97728.84;5029957;28;20448;-77
2024/03/16 03:57:57;;;;;;;1.73;0.93;;;9.60;93.40;;;8.95;98.78;97741.09;5034780;28;20443;-78
2024/03/16 04:00:24;;;;;;;0.70;0.70;;;9.60;93.70;;;8.98;98.36;97732.59;5052465;28;20455;-78
2024/03/16 04:02:52;;;;;;;1.30;0.90;;;9.60;93.30;;;8.93;98.62;97743.19;5054591;28;20469;-77
2024/03/16 04:05:20;;;;;;;1.20;1.10;;;9.60;93.40;;;8.86;99.32;97751.28;5046218;28;20464;-77
2024/03/16 04:07:47;;;;;;;1.53;0.87;;;9.50;93.50;;;8.77;100.00;97739.91;5033100;28;21018;-78
2024/03/16 04:10:14;;;;;;;1.50;1.07;;;9.50;93.80;;;8.84;99.29;97736.34;5049405;28;20463;-78
2024/03/16 04:12:42;;;;;;;0.77;0.77;;;9.50;93.70;;;8.94;98.53;97736.75;5043239;28;20744;-77
2024/03/16 04:15:09;;;;;;;1.53;0.83;;;9.60;93.40;;;8.83;99.03;97740.09;5048089;28;20933;-78
2024/03/16 04:17:37;;;;;;;1.40;1.00;;;9.50;93.60;;;9.00;97.92;97735.91;5018053;28;20545;-76
2024/03/16 04:20:06;;;;;;;3.03;1.10;;;9.60;93.30;;;8.91;98.76;97734.50;5033195;28;20480;-77
2024/03/16 04:22:33;;;;;;;1.83;0.90;;;9.60;93.30;;;8.90;98.13;97740.91;5029581;28;20542;-77
2024/03/16 04:25:03;;;;;;;2.83;0.80;;;9.50;93.20;;;8.84;97.84;97728.28;5052168;28;21125;-77
2024/03/16 04:27:30;;;;;;;2.60;0.77;;;9.50;93.20;;;8.79;98.06;97728.91;5033336;28;20453;-77
2024/03/16 04:29:58;;;;;;;1.20;1.10;;;9.50;93.30;;;8.84;98.99;97736.34;5033057;28;20497;-76
2024/03/16 04:32:27;;;;;;;1.30;1.10;;;9.60;93.30;;;8.80;98.22;97741.38;5040569;28;20448;-78
2024/03/16 04:34:55;;;;;;;1.33;1.23;;;9.60;92.80;;;8.93;99.03;97743.19;5039151;28;20441;-77
2024/03/16 04:37:23;;;;;;;1.40;1.13;;;9.60;93.20;;;8.95;97.21;97743.78;5051011;28;20466;-77
2024/03/16 04:39:50;;;;;;;2.50;1.20;;;9.60;92.60;;;9.03;97.43;97735.50;5069628;28;20976;-77
2024/03/16 04:42:19;;;;;;;2.27;1.20;;;9.60;92.80;;;9.00;96.75;97741.28;5046930;28;20802;-77
2024/03/16 04:44:46;;;;;;;2.27;1.40;;;9.70;92.80;;;8.79;97.83;97750.47;5041866;28;20441;-77
2024/03/16 04:47:15;;;;;;;1.33;0.90;;;9.70;92.50;;;8.73;98.79;97738.69;5050634;28;20461;-77
2024/03/16 04:49:42;;;;;;;1.43;1.10;;;9.70;92.50;;;8.78;98.08;97743.41;5049105;28;20448;-77
2024/03/16 04:52:10;;;;;;;0.83;0.80;;;9.70;92.40;;;8.79;97.91;97753.16;5049096;28;20458;-76
2024/03/16 04:54:37;;;;;;;1.33;1.23;;;9.70;92.20;;;8.65;99.71;97738.88;5033303;28;20441;-77
2024/03/16 04:57:05;;;;;;;0.80;0.80;;;9.70;92.70;;;8.75;98.97;97755.47;5053389;28;20530;-76
2024/03/16 04:59:33;;;;;;;0.80;0.80;;;9.70;92.70;;;8.84;97.92;97749.81;5023309;28;20527;-75
2024/03/16 05:02:01;;;;;;;1.40;1.00;;;9.70;92.40;;;8.88;97.88;97754.59;5044475;28;20707;-76
2024/03/16 05:04:28;;;;;;;1.30;0.83;;;9.70;92.30;;;8.72;99.49;97747.81;5037863;28;20508;-77
2024/03/16 05:06:55;;;;;;;1.17;1.00;;;9.70;92.80;;;9.03;99.55;97772.38;5052479;28;20458;-76
2024/03/16 05:09:23;;;;;;;3.13;1.20;;;9.70;93.20;;;8.92;99.40;97760.41;5015409;28;20947;-77
2024/03/16 05:11:51;;;;;;;1.43;1.00;;;9.70;93.50;;;8.94;100.00;97763.69;5031870;28;20511;-77
2024/03/16 05:14:18;;;;;;;1.20;1.03;;;9.60;94.40;;;8.94;100.00;97769.09;5035200;28;20487;-76
2024/03/16 05:16:46;;;;;;;2.90;1.70;;;9.60;94.70;;;8.85;100.00;97764.97;5033880;28;20444;-76
2024/03/16 05:19:13;;;;;;;1.33;1.23;;;9.50;95.80;;;8.43;100.00;97773.25;5035675;28;20469;-75
2024/03/16 05:21:42;;;;;;;1.40;1.10;;;9.40;97.40;;;8.44;100.00;97764.16;5039302;28;20443;-77
2024/03/16 05:24:09;;;;;;;2.50;1.00;;;9.40;99.10;;;8.52;100.00;97780.13;5051157;28;20959;-75
2024/03/16 05:26:37;;;;;;;1.20;1.00;;;9.40;99.30;;;8.55;100.00;97776.19;5035275;28;20471;-76
2024/03/16 05:29:05;;;;;;;2.50;1.17;;;9.40;99.60;;;8.49;100.00;97778.66;5055709;28;20529;-76
2024/03/16 05:31:33;;;;;;;1.33;1.00;;;9.40;99.50;;;8.47;100.00;97775.34;5034593;28;20472;-77
2024/03/16 05:34:00;;;;;;;1.60;1.50;;;9.40;99.70;;;8.48;100.00;97781.53;5041221;28;20440;-76
2024/03/16 05:36:28;;;;;;;2.10;1.87;;;9.40;99.90;;;8.47;100.00;97780.72;5040660;28;20456;-76
2024/03/16 05:38:56;;;;;;;2.70;1.70;;;9.40;99.90;;;8.49;100.00;97767.88;5055363;28;20562;-76
2024/03/16 05:41:24;;;;;;;2.10;1.93;;;9.40;99.90;;;8.82;100.00;97774.31;5040428;28;20439;-76
2024/03/16 05:43:53;;;;;;;2.90;2.40;;;9.40;99.90;;;8.90;100.00;97779.44;5054535;28;20447;-76
2024/03/16 05:46:20;;;;;;;4.67;3.00;;;9.50;99.90;;;8.79;100.00;97778.22;5035256;28;20951;-76
2024/03/16 05:48:48;;;;;;;3.80;2.23;;;9.50;99.90;;;8.79;100.00;97783.63;5043285;28;20454;-76
2024/03/16 05:51:15;;;;;;;3.17;1.97;;;9.40;99.90;;;8.76;100.00;97775.13;5048135;28;20468;-77
2024/03/16 05:53:43;;;;;;;2.30;2.10;;;9.40;99.90;;;8.77;100.00;97780.31;5054053;28;20467;-76
2024/03/16 05:56:12;;;;;;;2.53;2.30;;;9.40;99.90;;;8.77;100.00;97774.94;5039554;28;20467;-77
2024/03/16 05:58:41;;;;;;;3.90;2.80;;;9.50;99.90;;;8.93;100.00;97794.38;5047513;28;20541;-75
2024/03/16 06:01:08;;;;;;;3.03;2.30;;;9.50;99.70;;;8.95;100.00;97794.16;5049451;28;20457;-77
2024/03/16 06:03:36;;;;;;;2.83;2.63;;;9.60;98.90;;;8.73;100.00;97799.78;5038471;28;20463;-78
2024/03/16 06:06:04;;;;;;;4.87;2.93;;;9.60;98.60;;;8.64;100.00;97801.88;5047884;28;20442;-77
2024/03/16 06:08:31;;;;;;;3.40;2.70;;;9.60;98.20;;;8.70;100.00;97806.41;5031927;28;20457;-81
2024/03/16 06:10:59;;;;;;;2.93;2.40;;;9.60;98.20;;;8.78;100.00;97803.53;5033453;28;20451;-79
2024/03/16 06:13:27;;;;;;;2.67;2.47;;;9.70;97.80;;;8.38;100.00;97760.41;5055818;28;20557;-75
2024/03/16 06:15:54;;;;;;;2.90;2.60;;;9.60;96.90;;;8.72;100.00;97812.44;5038985;28;20449;-77
2024/03/16 06:18:24;;;;;;;3.03;2.80;;;9.60;96.90;;;8.75;100.00;97819.25;5049492;28;20790;-77
2024/03/16 06:20:52;;;;;;;7.03;4.10;;;9.60;97.60;;;8.69;100.00;97837.09;5034085;28;20485;-76
2024/03/16 06:23:20;;;;;;;3.43;3.13;;;9.60;96.70;;;8.75;100.00;97828.19;5051154;28;20453;-76
2024/03/16 06:25:49;;;;;;;4.37;3.10;;;9.70;96.10;;;8.84;100.00;97827.97;5050610;28;20448;-77
2024/03/16 06:28:21;;;;;;;2.70;2.30;;;9.70;95.80;;;8.93;100.00;97837.50;5044775;28;20453;-74
2024/03/16 06:30:55;;;;;;;2.17;2.00;;;9.80;95.30;;;8.92;100.00;97835.84;5037293;28;20451;-76
2024/03/16 06:33:30;;;;;;;2.43;2.23;;;9.80;94.90;;;8.83;100.00;97847.84;5043037;28;20571;-75
2024/03/16 06:35:57;;;;;;;2.63;2.17;;;9.70;94.60;;;8.94;100.00;97839.16;5036397;28;20988;-74
2024/03/16 06:38:25;;;;;;;4.17;2.30;;;9.80;94.80;;;8.97;100.00;97852.19;5055467;28;20973;-73
2024/03/16 06:40:53;;;;;;;2.07;1.90;;;9.90;94.50;;;9.09;100.00;97856.97;5031111;28;20480;-78
2024/03/16 06:43:21;;;;;;;2.20;2.00;;;10.00;93.80;;;9.00;100.00;97854.47;5051377;28;20995;-81
2024/03/16 06:45:49;;;;;;;3.53;2.00;;;9.90;94.20;;;9.04;100.00;97866.50;5041314;28;20638;-75
2024/03/16 06:48:15;;;;;;;2.53;2.10;;;9.90;93.90;;;9.43;100.00;97865.78;5046634;28;21355;-73
2024/03/16 06:50:51;;;;;;;2.33;2.13;;;10.10;94.70;;;9.51;99.92;97868.28;5031967;28;20976;-73
2024/03/16 06:53:19;;;;;;;14.03;10.13;;;10.20;93.50;;;9.29;99.87;97873.09;5050116;28;20510;-72
2024/03/16 06:55:50;;;;;;;2.93;2.63;;;10.20;92.80;;;9.33;99.47;97869.78;5031180;28;20447;-74
2024/03/16 06:58:17;;;;;;;3.03;2.40;;;10.30;92.20;;;9.64;99.25;97878.19;5029005;28;20489;-73
2024/03/16 07:00:47;;;;;;;2.00;1.63;;;10.30;92.80;;;9.69;97.10;97894.53;5038189;28;21013;-73
2024/03/16 07:03:15;;;;;;;3.20;2.00;;;10.50;92.10;;;9.89;96.36;97878.28;5060839;28;20456;-74
2024/03/16 07:05:44;;;;;;;1.87;1.73;;;10.60;91.80;;;9.46;97.82;97889.63;5033415;28;20498;-73
2024/03/16 07:08:15;;;;;;;1.73;1.63;;;10.40;91.40;;;9.42;98.41;97888.41;5045522;28;20465;-73
2024/03/16 07:10:43;;;;;;;2.40;1.93;;;10.40;92.00;;;9.52;98.49;97883.41;5044582;28;20453;-73
2024/03/16 07:13:10;;;;;;;2.60;2.00;;;10.40;92.10;;;9.69;96.72;97902.63;5045868;28;20568;-74
2024/03/16 07:15:39;;;;;;;2.30;1.43;;;10.50;91.40;;;9.75;95.89;97899.09;5047342;28;20459;-74
2024/03/16 07:18:06;;;;;;;1.97;1.87;;;10.60;91.30;;;9.75;95.96;97899.09;5032824;28;20924;-74
2024/03/16 07:20:34;;;;;;;2.30;1.53;;;10.60;91.20;;;9.61;97.34;97895.59;5046865;28;20466;-76
2024/03/16 07:23:04;;;;;;;2.50;1.37;;;10.60;91.40;;;9.80;97.09;97900.31;5048017;28;21159;-74
2024/03/16 07:25:32;;;;;;;2.20;1.60;;;10.60;91.30;;;9.90;93.67;97901.53;5041052;28;20452;-74
2024/03/16 07:28:00;;;;;;;1.30;1.20;;;10.70;90.70;;;10.52;90.96;97899.38;5047050;28;20534;-75
2024/03/16 07:30:28;;;;;;;2.27;1.20;;;11.00;90.20;;;10.51;89.67;97905.81;5046813;28;20452;-76
2024/03/16 07:32:56;;;;;;;1.83;1.50;;;11.20;89.50;;;10.75;88.33;97894.22;5029895;28;20542;-75
2024/03/16 07:35:23;;;;;;;3.23;1.70;;;11.50;89.20;;;11.09;86.55;97895.81;5044375;28;20445;-76
2024/03/16 07:37:50;;;;;;;1.83;1.50;;;11.80;88.10;;;10.70;86.67;97845.44;5046427;28;20510;-77
2024/03/16 07:40:18;;;;;;;2.43;1.20;;;11.90;87.60;;;11.16;85.81;97893.91;5047500;28;20481;-75
2024/03/16 07:42:45;;;;;;;4.13;1.50;;;11.80;87.40;;;11.40;83.42;97899.47;5060866;28;20832;-76
2024/03/16 07:45:14;;;;;;;1.33;1.07;;;12.00;86.60;;;11.26;84.22;97902.31;5050321;28;20548;-75
2024/03/16 07:47:42;;;;;;;1.53;1.43;;;12.10;86.70;;;11.04;84.33;97910.00;5040591;28;20441;-75
2024/03/16 07:50:09;;;;;;;0.90;0.90;;;12.00;86.00;;;11.14;83.96;97917.59;5046446;28;20474;-77
2024/03/16 07:52:37;;;;;;;4.37;1.30;;;11.90;86.10;;;11.23;83.84;97916.28;5043699;28;20575;-79
2024/03/16 07:55:06;;;;;;;2.47;1.43;;;11.90;86.30;;;10.84;84.94;97910.16;5047998;28;20442;-81
2024/03/16 07:57:39;;;;;;;1.23;0.90;;;11.80;86.10;;;11.15;83.60;97924.69;5050164;28;20445;-86
2024/03/16 08:00:10;;;;;;;1.27;1.10;;;11.80;85.90;;;10.81;84.20;97914.13;5049602;28;20474;-74
2024/03/16 08:02:38;;;;;;;0.70;0.70;;;11.80;85.60;;;10.89;84.19;97923.84;5029194;28;20466;-73
2024/03/16 08:05:10;;;;;;;1.33;1.17;;;11.60;85.80;;;10.84;84.02;97931.78;5028174;28;21037;-79
2024/03/16 08:07:41;;;;;;;1.77;1.27;;;11.70;85.70;;;11.32;83.00;97931.19;5045454;28;20450;-74
2024/03/16 08:10:09;;;;;;;2.03;1.53;;;11.80;85.90;;;11.86;79.91;97933.31;5046499;28;20539;-71
2024/03/16 08:12:41;;;;;;;1.17;1.07;;;12.20;85.20;;;12.10;79.04;97929.94;5047456;28;20450;-73
2024/03/16 08:15:09;;;;;;;1.60;1.07;;;12.50;84.80;;;11.75;78.17;97937.63;5055615;28;20565;-73
2024/03/16 08:17:38;;;;;;;1.37;0.93;;;12.60;83.60;;;11.94;78.33;97939.50;5048796;28;20447;-74
2024/03/16 08:20:08;;;;;;;1.23;1.00;;;12.60;83.70;;;11.92;78.67;97937.00;5046043;28;20475;-73
2024/03/16 08:22:36;;;;;;;2.20;1.27;;;12.60;84.00;;;12.16;77.59;97938.00;5047233;28;20552;-73
2024/03/16 08:25:04;;;;;;;3.43;1.40;;;12.70;83.60;;;12.22;76.40;97941.69;5031544;28;20455;-73
2024/03/16 08:27:31;;;;;;;2.13;1.40;;;12.90;83.10;;;12.32;76.02;97951.97;5064653;28;20540;-74
2024/03/16 08:29:59;;;;;;;2.00;0.80;;;13.00;82.80;;;11.87;76.97;97950.41;5055311;28;20445;-73
2024/03/16 08:32:29;;;;;;;1.00;0.87;;;12.70;82.60;;;11.93;77.41;97954.09;5047492;28;20943;-82
2024/03/16 08:34:57;;;;;;;1.60;0.80;;;12.60;82.90;;;11.90;77.89;97950.78;5029738;28;20537;-71
2024/03/16 08:37:24;;;;;;;1.30;0.90;;;12.60;83.10;;;11.82;78.07;97963.78;5035504;28;21345;-72
2024/03/16 08:39:52;;;;;;;1.27;1.10;;;12.50;83.00;;;11.59;78.59;97949.03;5049656;28;20457;-71
2024/03/16 08:42:19;;;;;;;1.10;1.00;;;12.40;83.10;;;11.45;78.96;97959.16;5050394;28;20465;-71
2024/03/16 08:44:47;;;;;;;0.90;0.73;;;12.30;83.20;;;11.43;79.52;97953.97;5031342;28;20455;-72
2024/03/16 08:47:15;;;;;;;2.10;1.00;;;12.10;83.40;;;11.55;79.00;97958.66;5035100;28;20811;-72
2024/03/16 08:49:43;;;;;;;0.93;0.93;;;12.20;83.30;;;11.48;79.14;97964.13;5030430;28;20459;-73
2024/03/16 08:52:10;;;;;;;1.20;0.90;;;12.30;83.30;;;11.34;79.33;97964.25;5043903;28;20508;-72
2024/03/16 08:54:37;;;;;;;1.40;0.93;;;12.10;83.30;;;11.16;81.41;97961.50;5029037;28;20548;-73
2024/03/16 08:57:06;;;;;;;1.00;0.70;;;12.00;83.70;;;10.91;83.86;97965.00;5048272;28;20458;-74
2024/03/16 08:59:35;;;;;;;1.20;0.80;;;11.80;84.60;;;10.74;86.57;97970.94;5037151;28;20457;-72
2024/03/16 09:02:03;;;;;;;1.53;1.30;;;11.60;85.80;;;10.49;88.25;97963.59;5011183;28;20473;-74
2024/03/16 09:04:32;;;;;;;1.37;0.90;;;11.40;86.40;;;10.40;89.28;97956.78;5047760;28;20510;-74
2024/03/16 09:07:00;;;;;;;1.30;1.07;;;11.20;87.20;;;10.37;89.25;97959.88;5053191;28;20465;-74
2024/03/16 09:09:27;;;;;;;1.03;0.63;;;11.20;87.30;;;10.40;89.54;97962.16;5030871;28;20443;-72
2024/03/16 09:11:55;;;;;;;0.97;0.87;;;11.10;87.40;;;10.54;89.34;97960.25;5051596;28;20449;-73
2024/03/16 09:14:22;;;;;;;1.43;1.10;;;11.20;87.80;;;10.76;88.34;97970.69;5032812;28;21015;-72
2024/03/16 09:16:53;;;;;;;2.20;1.10;;;11.40;87.90;;;10.79;87.34;97975.69;5049450;28;20826;-73
2024/03/16 09:19:20;;;;;;;1.47;0.87;;;11.50;87.20;;;10.83;87.20;97978.75;5045064;28;21040;-71
2024/03/16 09:21:49;;;;;;;1.50;0.83;;;11.50;87.20;;;10.73;87.97;97969.28;5047355;28;20483;-73
2024/03/16 09:24:18;;;;;;;1.30;0.90;;;11.50;87.30;;;10.83;87.39;97986.88;5047289;28;20465;-72
2024/03/16 09:26:45;;;;;;;1.03;1.00;;;11.50;87.50;;;10.94;86.55;97990.78;5040469;28;20552;-73
2024/03/16 09:29:12;;;;;;;2.47;0.80;;;11.50;87.10;;;11.08;85.50;97981.53;5037783;28;20447;-71
2024/03/16 09:31:40;;;;;;;1.03;0.90;;;11.70;87.00;;;10.88;86.84;97987.88;5030652;28;20455;-72
2024/03/16 09:34:08;;;;;;;1.40;1.30;;;11.60;86.90;;;10.99;85.51;97991.75;5040416;28;20855;-72
2024/03/16 09:36:37;;;;;;;2.00;0.90;;;11.60;86.70;;;11.02;84.79;97998.59;5046680;28;20560;-73
2024/03/16 09:39:09;;;;;;;1.07;1.00;;;11.70;86.30;;;11.09;84.46;97998.56;5026179;28;20464;-73
2024/03/16 09:41:39;;;;;;;1.00;0.90;;;11.80;86.10;;;11.05;83.60;97992.75;5027284;28;20568;-73
2024/03/16 09:44:08;;;;;;;1.80;0.90;;;11.80;85.60;;;11.15;84.41;98000.41;5051132;28;20456;-72
2024/03/16 09:46:36;;;;;;;1.40;1.30;;;11.80;86.00;;;11.16;84.01;98002.06;5024194;28;20463;-73
2024/03/16 09:49:04;;;;;;;2.20;2.00;;;11.80;86.10;;;11.14;84.52;97990.59;5031410;28;20835;-72
2024/03/16 09:51:32;;;;;;;1.00;0.90;;;11.80;86.50;;;11.30;83.30;98000.91;5035572;28;21029;-71
2024/03/16 09:54:06;;;;;;;2.70;1.00;;;11.90;85.80;;;11.51;81.29;98004.25;5026592;28;20454;-72
2024/03/16 09:56:34;;;;;;;1.33;1.03;;;12.10;85.00;;;11.73;80.84;98003.84;5041084;28;20486;-74
2024/03/16 09:59:03;;;;;;;1.10;1.00;;;12.40;84.90;;;11.90;79.75;97996.81;5049307;28;20458;-75
2024/03/16 10:01:34;;;;;;;1.10;1.00;;;12.60;84.40;;;12.23;79.22;97991.28;5049216;28;20490;-72
2024/03/16 10:04:04;;;;;;;3.13;1.07;;;12.80;84.40;;;12.56;76.70;97995.44;5045635;28;20525;-74
2024/03/16 10:06:32;;;;;;;2.47;1.23;;;13.10;83.50;;;12.85;75.97;97992.97;5060693;28;20548;-74
2024/03/16 10:09:12;;;;;;;1.40;0.87;;;13.40;83.30;;;12.74;74.16;97992.69;5017969;28;20528;-76
2024/03/16 10:11:40;;;;;;;1.03;0.93;;;13.50;82.10;;;13.09;73.48;97993.84;5011464;28;20458;-73
2024/03/16 10:14:09;;;;;;;0.80;0.80;;;13.70;82.00;;;13.23;71.39;98002.59;5044900;28;20455;-72
2024/03/16 10:16:40;;;;;;;1.60;1.10;;;14.00;81.00;;;12.54;75.32;98008.41;5034759;28;20815;-73
2024/03/16 10:19:08;;;;;;;1.23;1.13;;;13.40;81.60;;;12.33;75.35;97965.28;5032751;28;20531;-73
2024/03/16 10:21:36;;;;;;;2.20;1.37;;;13.30;81.90;;;12.53;72.81;97953.34;5035192;28;20586;-72
2024/03/16 10:24:04;;;;;;;1.60;1.30;;;13.40;81.00;;;12.85;73.82;97995.66;5032024;28;21020;-77
2024/03/16 10:26:32;;;;;;;0.80;0.80;;;13.50;81.50;;;12.60;73.93;98007.47;5032113;28;20630;-72
2024/03/16 10:29:00;;;;;;;2.37;1.47;;;13.40;81.00;;;12.62;75.53;97999.94;5037691;28;20479;-74